Pacific Fantasy — A8MV6 — position and weather

sailwx.info

Track history (hours):
 
Tides and Currents Weather Stations Pressure Air Temp Water Temp Dewpoint Dewpoint Depression Visibility Wind Speed Wind Dir Waves Ship Positions

Pacific Fantasy

Last reported at 2015-May-17 19:06 UTC. Time now 2015-May-22 19:08 UTC.
Position N 02°01' E 102°12'.

Length 180 m; draft 6.5 m.

Type: Cargo ship. MMSI: 636013744.

Date/timePositionNaut miles runAvg speedWind from/ knotsBaromVisibWave heightAir tempDewpointWater temp
2015-May-17 19:06N 02°01' E 102°12'712.8
2015-May-17 18:33N 01°57' E 102°18'1312.8
2015-May-17 17:32N 01°51' E 102°30'1212.5
2015-May-17 16:33N 01°46' E 102°41'7610.7
2015-May-17 09:30N 01°10' E 103°48'7 7.4
2015-May-17 08:31N 01°15' E 103°53'0 0.0
2015-May-17 07:26N 01°15' E 103°53'0 0.0
2015-May-17 05:16N 01°15' E 103°53'0 0.0
2015-May-17 04:10N 01°15' E 103°53'0 0.0
2015-May-17 03:13N 01°15' E 103°53'0 0.0
2015-May-17 02:10N 01°15' E 103°53'0 0.0
2015-May-17 01:31N 01°15' E 103°53'0 0.0
2015-May-17 00:07N 01°15' E 103°53'0 0.0
2015-May-16 23:28N 01°15' E 103°53'0 0.0
2015-May-16 20:31N 01°15' E 103°53'0 0.0
2015-May-16 18:16N 01°15' E 103°53'0 0.1
2015-May-16 17:10N 01°15' E 103°53'0 0.1
2015-May-16 16:16N 01°15' E 103°53'0 0.0
2015-May-16 15:28N 01°15' E 103°53'0 0.1
2015-May-16 14:16N 01°15' E 103°53'0 0.1
2015-May-16 13:04N 01°15' E 103°53'0 0.0
2015-May-16 12:31N 01°15' E 103°53'0 0.0
2015-May-16 11:31N 01°15' E 103°53'0 0.0
2015-May-16 10:25N 01°15' E 103°53'0 0.0
2015-May-16 09:07N 01°15' E 103°53'0 0.2
2015-May-16 08:28N 01°15' E 103°53'0 0.3
2015-May-16 07:29N 01°15' E 103°53'4 4.5
2015-May-16 06:33N 01°15' E 103°58'  
2015-May-09 22:20N 24°27' E 119°15'38610.4
2015-May-08 09:21N 29°52' E 123°10'1110.8
2015-May-08 08:22N 30°03' E 123°12'810.4
2015-May-08 07:33N 30°11' E 123°11'11 9.7
2015-May-08 06:24N 30°22' E 123°10'8 9.1
2015-May-08 05:33N 30°30' E 123°09'9 9.5
2015-May-08 04:33N 30°38' E 123°04'9 9.3
2015-May-08 03:33N 30°46' E 122°58'9 9.3
2015-May-08 02:33N 30°54' E 122°53'9 9.3
2015-May-08 01:33N 31°03' E 122°48'1310.3
2015-May-08 00:19N 31°06' E 122°34'8 9.8
2015-May-07 23:27N 31°06' E 122°24'1011.4
2015-May-07 22:33N 31°09' E 122°13'1313.4
2015-May-07 21:34N 31°15' E 121°58'1312.9
2015-May-07 20:33N 31°19' E 121°44'1010.5
2015-May-07 19:33N 31°24' E 121°33'  
Track history (hours):
 
Tides and Currents Weather Stations Pressure Air Temp Water Temp Dewpoint Dewpoint Depression Visibility Wind Speed Wind Dir Waves Ship Positions

Pacific Fantasy

Last reported at 2015-May-17 19:06 UTC. Time now 2015-May-22 19:08 UTC.
Position N 02°01' E 102°12'.

Length 180 m; draft 6.5 m.

Type: Cargo ship. MMSI: 636013744.

Date/timePositionNaut miles runAvg speedWind from/ knotsBaromVisibWave heightAir tempDewpointWater temp
2015-May-17 19:06N 02°01' E 102°12'712.8
2015-May-17 18:33N 01°57' E 102°18'1312.8
2015-May-17 17:32N 01°51' E 102°30'1212.5
2015-May-17 16:33N 01°46' E 102°41'7610.7
2015-May-17 09:30N 01°10' E 103°48'7 7.4
2015-May-17 08:31N 01°15' E 103°53'0 0.0
2015-May-17 07:26N 01°15' E 103°53'0 0.0
2015-May-17 05:16N 01°15' E 103°53'0 0.0
2015-May-17 04:10N 01°15' E 103°53'0 0.0
2015-May-17 03:13N 01°15' E 103°53'0 0.0
2015-May-17 02:10N 01°15' E 103°53'0 0.0
2015-May-17 01:31N 01°15' E 103°53'0 0.0
2015-May-17 00:07N 01°15' E 103°53'0 0.0
2015-May-16 23:28N 01°15' E 103°53'0 0.0
2015-May-16 20:31N 01°15' E 103°53'0 0.0
2015-May-16 18:16N 01°15' E 103°53'0 0.1
2015-May-16 17:10N 01°15' E 103°53'0 0.1
2015-May-16 16:16N 01°15' E 103°53'0 0.0
2015-May-16 15:28N 01°15' E 103°53'0 0.1
2015-May-16 14:16N 01°15' E 103°53'0 0.1
2015-May-16 13:04N 01°15' E 103°53'0 0.0
2015-May-16 12:31N 01°15' E 103°53'0 0.0
2015-May-16 11:31N 01°15' E 103°53'0 0.0
2015-May-16 10:25N 01°15' E 103°53'0 0.0
2015-May-16 09:07N 01°15' E 103°53'0 0.2
2015-May-16 08:28N 01°15' E 103°53'0 0.3
2015-May-16 07:29N 01°15' E 103°53'4 4.5
2015-May-16 06:33N 01°15' E 103°58'  
2015-May-09 22:20N 24°27' E 119°15'38610.4
2015-May-08 09:21N 29°52' E 123°10'1110.8
2015-May-08 08:22N 30°03' E 123°12'810.4
2015-May-08 07:33N 30°11' E 123°11'11 9.7
2015-May-08 06:24N 30°22' E 123°10'8 9.1
2015-May-08 05:33N 30°30' E 123°09'9 9.5
2015-May-08 04:33N 30°38' E 123°04'9 9.3
2015-May-08 03:33N 30°46' E 122°58'9 9.3
2015-May-08 02:33N 30°54' E 122°53'9 9.3
2015-May-08 01:33N 31°03' E 122°48'1310.3
2015-May-08 00:19N 31°06' E 122°34'8 9.8
2015-May-07 23:27N 31°06' E 122°24'1011.4
2015-May-07 22:33N 31°09' E 122°13'1313.4
2015-May-07 21:34N 31°15' E 121°58'1312.9
2015-May-07 20:33N 31°19' E 121°44'1010.5
2015-May-07 19:33N 31°24' E 121°33'  

Dump ship's entire track history